2016 Inaugural Manly Man Tri Results

[ Manly Man Tri ] [ Man Up Tri] [ Strong Woman Tri]
2016 Inaugural Manly Man Tri Results
Manly Man Tri
Overall Swim
(300M)
T1 Bike
(10m)
T1 Run
(2m)
AG
Pos
Overall
Pos
Name Race No Finish
Time
AG
Pos
Overall
Pos
Time AG
Pos
Overall
Pos
Time AG
Pos
Overall
Pos
Time Pace AG
Pos
Overall
Pos
Time AG
Pos
Overall
Pos
Time Pace
Overall
1 1 Douglas MCPHERSON 53 00:50:36 1 1 00:05:28 3 9 00:01:03 1 1 00:27:31 21.8 m/hr 3 13 00:01:04 1 1 00:15:32 7:41 min/m
2 2 Collin CHASE 180 00:59:40 3 10 00:07:32 1 3 00:00:49 2 3 00:34:08 17.6 m/hr 1 3 00:00:36 3 6 00:16:32 8:16 min/m
3 3 Gabriel MORALEZ 114 00:59:48 2 5 00:07:05 2 4 00:00:54 3 5 00:34:47 17.2 m/hr 2 6 00:00:51 2 5 00:16:09 8:04 min/m
Under 25
1 16 Jacob CAMPA 78 01:12:21 5 45 00:09:29 2 10 00:01:07 1 28 00:42:15 14.2 m/hr 2 9 00:00:58 1 10 00:18:30 9:15 min/m
2 29 John-Louis BARTON 319 01:20:13 2 26 00:08:41 3 14 00:01:13 2 37 00:46:44 12.8 m/hr 4 19 00:01:15 3 22 00:22:17 11:08 min/m
3 30 Wilie FLORES 308 01:20:20 4 42 00:09:20 1 5 00:00:55 3 41 00:48:27 12.4 m/hr 1 7 00:00:53 2 16 00:20:43 10:21 min/m
4 36 Colby MASK 97 01:23:31 1 3 00:06:47 5 30 00:01:52 4 44 00:51:22 11.7 m/hr 3 15 00:01:07 4 25 00:22:22 11:11 min/m
5 47 Austin TUDLONG 71 01:32:11 3 36 00:09:04 7 59 00:04:13 5 45 00:51:31 11.6 m/hr 6 37 00:01:42 6 40 00:25:40 12:50 min/m
6 51 Alexander ALVAREZ 50 01:36:26 6 54 00:10:09 6 57 00:03:40 6 50 00:57:19 10.5 m/hr 8 51 00:02:30 5 29 00:22:46 11:23 min/m
7 69 Kai TUBBS 177 02:13:54 7 69 00:12:58 4 16 00:01:18 9 67 01:26:51 6.9 m/hr 5 31 00:01:33 7 54 00:31:12 15:36 min/m
8 71 Graham FRERMAN 182 02:15:20 8 71 00:13:29 8 62 00:04:35 7 64 01:21:55 7.3 m/hr 9 61 00:03:19 9 58 00:31:59 15:59 min/m
9 73 Ryan ORLOWSKY 127 02:15:51 9 72 00:13:35 9 68 00:07:06 8 66 01:22:03 7.3 m/hr 7 39 00:01:43 8 57 00:31:22 15:41 min/m
Ages 25 - 34
1 21 Justin COX 121 01:13:50 2 19 00:08:20 1 6 00:00:58 2 25 00:41:51 14.3 m/hr 1 2 00:00:36 4 20 00:22:04 11:02 min/m
2 26 Jon CARRIZALES 111 01:18:23 3 29 00:08:48 5 36 00:02:28 1 20 00:40:43 14.7 m/hr 5 43 00:01:50 5 33 00:24:32 12:16 min/m
3 34 Benjamin PRATT 264 01:22:45 7 39 00:09:11 3 21 00:01:27 6 48 00:55:29 10.8 m/hr 3 18 00:01:15 2 4 00:15:21 7:40 min/m
4 39 Edward DELGADO 314 01:25:01 4 32 00:09:01 4 31 00:01:52 4 31 00:43:35 13.8 m/hr 7 54 00:02:39 8 47 00:27:53 13:56 min/m
5 41 Nicholas HENRY 218 01:27:11 5 33 00:09:01 12 71 00:12:37 3 30 00:42:59 14.0 m/hr 2 14 00:01:07 3 19 00:21:25 10:42 min/m
6 53 Aaron JONES 32 01:38:04 1 15 00:08:14 6 53 00:03:33 5 43 00:51:20 11.7 m/hr 6 47 00:02:12 9 61 00:32:44 16:22 min/m
7 55 Rashad SIERRA 203 01:38:54 11 63 00:11:00 10 65 00:04:44 9 58 01:08:00 8.8 m/hr 10 59 00:03:11 1 2 00:11:58 5:59 min/m
8 60 Matthew ROBISON 193 01:52:20 8 49 00:09:42 11 69 00:07:12 8 55 01:07:22 8.9 m/hr 8 56 00:02:48 6 36 00:25:14 12:37 min/m
9 61 Juan RAMIREZ 74 01:52:24 9 58 00:10:37 2 11 00:01:12 7 52 00:57:51 10.4 m/hr 4 34 00:01:37 11 69 00:41:05 20:32 min/m
10 62 Juan Carlos ALMANZA 253 01:55:22 6 34 00:09:02 8 61 00:04:27                      
11 63 Peter DANG 24 01:56:37 12 67 00:12:37 7 60 00:04:25 10 59 01:09:02 8.7 m/hr 9 57 00:02:58 7 45 00:27:33 13:46 min/m
12 67 Ignacio VILLARREAL 267 02:08:16 10 61 00:10:54 9 63 00:04:37 11 61 01:14:05 8.1 m/hr 11 67 00:04:36 10 65 00:34:03 17:01 min/m
    Phillip HOLCOMB 238 00:52:20     00:06:55     00:20:16     00:01:15 478 m/hr              
Ages 35 - 44
1 4 Dan WEISEL 294 01:01:31 4 8 00:07:29 4 15 00:01:16 6 12 00:36:13 16.6 m/hr 22 52 00:02:34 1 3 00:13:57 6:58 min/m
2 5 Peter ROSBERG 285 01:04:27 13 28 00:08:44 5 20 00:01:23 2 7 00:35:25 16.9 m/hr 9 24 00:01:27 2 7 00:17:26 8:43 min/m
3 6 Morgan LI 55 01:05:32 2 6 00:07:08 3 13 00:01:13 4 10 00:36:06 16.6 m/hr 4 12 00:01:03 6 14 00:20:00 10:00 min/m
4 8 Jay NICHOLS 251 01:09:36 12 24 00:08:30 9 25 00:01:30 11 18 00:39:39 15.1 m/hr 11 30 00:01:32 4 9 00:18:25 9:12 min/m
5 10 Robert GARCES 245 01:11:15 8 16 00:08:14 19 42 00:02:44 7 13 00:36:22 16.5 m/hr 7 22 00:01:24 12 26 00:22:29 11:14 min/m
6 12 Travis HOWARD 56 01:11:41 1 2 00:06:30 13 32 00:01:57 1 4 00:34:24 17.4 m/hr 12 32 00:01:35 19 44 00:27:13 13:36 min/m
7 13 David WAMPLER 183 01:11:50 18 43 00:09:25 15 35 00:02:17 3 8 00:35:39 16.8 m/hr 18 45 00:02:07 10 23 00:22:20 11:10 min/m
8 14 Philip BARZILLA 202 01:11:59 17 38 00:09:09 6 22 00:01:28 14 26 00:42:00 14.3 m/hr 5 16 00:01:07 3 8 00:18:13 9:06 min/m
9 17 Michael PILGRIM 192 01:12:30 5 9 00:07:32 17 38 00:02:34 5 11 00:36:10 16.6 m/hr 3 10 00:00:59 15 35 00:25:13 12:36 min/m
10 18 Lance TURNBOW 76 01:13:01 25 62 00:10:57 11 27 00:01:36 12 19 00:39:51 15.1 m/hr 16 42 00:01:50 5 12 00:18:45 9:22 min/m
11 19 Jason REYNOLDS 179 01:13:45 19 46 00:09:30 22 46 00:03:02 10 17 00:39:25 15.2 m/hr 1 4 00:00:45 9 18 00:21:01 10:30 min/m
12 20 Jason SCHNITTGER 152 01:13:46 14 30 00:08:52 12 28 00:01:50 9 15 00:38:43 15.5 m/hr 17 44 00:01:59 11 24 00:22:21 11:10 min/m
13 25 Matt MAYFIELD 148 01:17:07 6 13 00:07:58 1 1 00:00:42 17 39 00:47:40 12.6 m/hr 2 5 00:00:46 7 15 00:20:01 10:00 min/m
14 28 Tony VOROSHILIN 21 01:19:35 10 20 00:08:23 25 56 00:03:39 15 29 00:42:47 14.0 m/hr 27 66 00:03:52 8 17 00:20:52 10:26 min/m
15 31 Jon OEFINGER 209 01:20:37 21 50 00:09:44 26 58 00:03:50 8 14 00:37:39 15.9 m/hr 20 48 00:02:21 18 42 00:27:01 13:30 min/m
16 33 Art HALL 171 01:22:06 3 7 00:07:10 14 33 00:02:09 13 24 00:41:40 14.4 m/hr 15 41 00:01:50 21 52 00:29:16 14:38 min/m
17 37 Joe SAENZ 94 01:24:19 11 23 00:08:26 8 24 00:01:30 19 42 00:49:16 12.2 m/hr 8 23 00:01:25 14 31 00:23:40 11:50 min/m
18 38 Eloy CUELLAR 258 01:24:31 7 14 00:08:12 10 26 00:01:33 16 38 00:46:58 12.8 m/hr 13 35 00:01:38 17 41 00:26:08 13:04 min/m
19 42 Lealand TAYLOR 239 01:27:56 20 47 00:09:31                     20 51 00:29:00 14:30 min/m
20 48 Nathaniel GATES 58 01:32:18 9 18 00:08:19 18 40 00:02:40 18 40 00:48:19 12.4 m/hr 25 58 00:03:05 22 53 00:29:54 14:57 min/m
21 49 Rich RIVERA 29 01:33:00 16 37 00:09:06 16 37 00:02:33 20 47 00:52:55 11.3 m/hr 24 55 00:02:46 16 39 00:25:39 12:49 min/m
22 50 Jorge ALVAREZ 49 01:36:25 23 52 00:10:04 24 55 00:03:37 22 51 00:57:21 10.5 m/hr 23 53 00:02:37 13 28 00:22:43 11:21 min/m
23 56 Gustavo GOMEZ III 279 01:44:14 27 66 00:12:10                     29 68 00:37:22 18:41 min/m
24 57 Chris STOKES 98 01:46:16 22 51 00:09:46 21 44 00:02:56 21 49 00:55:55 10.7 m/hr 19 46 00:02:09 28 67 00:35:28 17:44 min/m
25 59 Bill BIGGS 92 01:51:38 26 65 00:11:20 7 23 00:01:29 23 54 01:03:43 9.4 m/hr 6 21 00:01:21 27 63 00:33:43 16:51 min/m
26 65 Scott WILSON 112 01:59:27 24 56 00:10:32 23 47 00:03:06 24 57 01:07:31 8.9 m/hr 28 68 00:05:21 26 62 00:32:55 16:27 min/m
27 68 Chris TUBBS 176 02:13:48 28 68 00:12:54 2 12 00:01:12 28 68 01:26:54 6.9 m/hr 10 26 00:01:30 23 55 00:31:16 15:38 min/m
28 70 Andy FRERMAN 181 02:15:05 29 70 00:13:13 27 64 00:04:39 26 63 01:21:11 7.4 m/hr 26 60 00:03:16 25 60 00:32:43 16:21 min/m
29 72 Matthew ORLOWSKY 126 02:15:45 30 74 00:17:43 20 43 00:02:49 27 65 01:22:03 7.3 m/hr 14 40 00:01:47 24 56 00:31:21 15:40 min/m
30 74 Shawn REYNOLDS 178 02:19:47 15 31 00:08:57 28 70 00:10:32 25 62 01:16:25 7.9 m/hr 21 49 00:02:23 30 70 00:41:28 20:44 min/m
    Fernando MARRUFO 223 00:58:19     00:10:14                         00:41:46 20:53 min/m
Ages 45 - 54
1 7 Tony MESZAROS 286 01:06:44 2 21 00:08:23 5 19 00:01:21 2 9 00:35:49 16.7 m/hr 4 17 00:01:12 1 13 00:19:56 9:58 min/m
2 11 Anthony ROTONDO 404 01:11:31 1 4 00:06:49 1 2 00:00:44 5 22 00:41:09 14.6 m/hr 1 1 00:00:35 2 21 00:22:11 11:05 min/m
3 23 Greg VYBIRAL 1 01:15:16 6 35 00:09:02 12 54 00:03:37 3 16 00:39:09 15.3 m/hr 2 8 00:00:53 3 27 00:22:32 11:16 min/m
4 24 David FIGARI 136 01:15:21 11 59 00:10:43 7 45 00:02:58 1 6 00:34:48 17.2 m/hr 11 50 00:02:24 5 32 00:24:26 12:13 min/m
5 27 Cleve HARDCASTLE 51 01:19:13 5 27 00:08:43 9 49 00:03:19 4 21 00:40:49 14.7 m/hr 7 27 00:01:30 6 34 00:24:50 12:25 min/m
6 32 Mark MCCONNELL 281 01:21:59 3 22 00:08:24 8 48 00:03:16 6 23 00:41:11 14.6 m/hr 13 65 00:03:51 7 37 00:25:14 12:37 min/m
7 35 David TOLBERT 271 01:23:02 10 48 00:09:32 4 18 00:01:20 7 27 00:42:09 14.2 m/hr 6 25 00:01:30 10 49 00:28:29 14:14 min/m
8 40 Francisco SOTO 220 01:25:53 13 64 00:11:09 11 52 00:03:30 8 34 00:44:15 13.6 m/hr 12 63 00:03:31 4 30 00:23:25 11:42 min/m
9 44 Sean TUDLONG 63 01:28:38 8 41 00:09:16 14 67 00:06:29 9 35 00:45:39 13.1 m/hr 9 36 00:01:41 8 38 00:25:32 12:46 min/m
10 46 Mike CRAWFORD 230 01:31:30 12 60 00:10:46 13 66 00:05:18 10 36 00:46:13 13.0 m/hr 8 33 00:01:37 9 46 00:27:35 13:47 min/m
11 52 Santiago CONCHAS 37 01:36:41 14 73 00:14:01 3 17 00:01:20               14 72 01:22:36 41:18 min/m
12 54 Brian STOIBER 268 01:38:41 9 44 00:09:27 2 7 00:01:00 11 46 00:51:56 11.6 m/hr 5 20 00:01:15 12 66 00:35:00 17:30 min/m
13 58 Clay ROSENBAUM 14 01:50:50 7 40 00:09:14 10 51 00:03:19 12 53 01:02:33 9.6 m/hr 10 38 00:01:42 11 64 00:34:00 17:00 min/m
14 66 Richard REYNA 89 02:07:51 4 25 00:08:32 6 34 00:02:10 13 60 01:10:02 8.6 m/hr 3 11 00:01:01 13 71 00:46:05 23:02 min/m
Ages 55+
1 15 Tim ROCKEY 142 01:12:18 2 12 00:07:39 3 41 00:02:42                      
2 22 Jack SUTCLIFFE 173 01:14:03 3 17 00:08:17 1 29 00:01:50 2 33 00:43:49 13.7 m/hr 1 29 00:01:31 1 11 00:18:34 9:17 min/m
3 43 Alan BROWN 108 01:28:33 4 53 00:10:06 2 39 00:02:36 1 32 00:43:48 13.7 m/hr 2 62 00:03:29 3 50 00:28:32 14:16 min/m
4 45 Bruce SIMONEAUX 31 01:29:08 1 11 00:07:36                     2 48 00:27:58 13:59 min/m
5 64 Gary DICKERSON 69 01:57:02 5 55 00:10:30 4 50 00:03:19 3 56 01:07:26 8.9 m/hr 3 64 00:03:40 4 59 00:32:06 16:03 min/m
Relay
1 9 J3 500 01:09:52 1 57 00:10:32 1 8 00:01:02 1 2 00:29:35 20.3 m/hr 1 28 00:01:31 1 43 00:27:10 13:35 min/m
Chip Timing by RRPTiming.com!

 

[ Manly Man Tri ] [ Man Up Tri] [ Strong Woman Tri]

2016 Inaugural Manly Man Tri Results
Man Up Tri
Overall Swim
(300M)
T1 Bike
(14m)
T1 Run
(3.1m)
AG
Pos
Overall
Pos
Name Race No Finish
Time
AG
Pos
Overall
Pos
Time AG
Pos
Overall
Pos
Time AG
Pos
Overall
Pos
Time Pace AG
Pos
Overall
Pos
Time AG
Pos
Overall
Pos
Time Pace
Overall
1 1 Dale LONDOS 304 01:05:41 1 3 00:06:04 2 9 00:00:55 1 1 00:37:32 22.4 m/hr 2 4 00:00:47 1 4 00:20:21 6:33 min/m
2 2 Matthew BORGMAN 284 01:08:42 2 4 00:06:06 1 6 00:00:50 3 3 00:39:09 21.5 m/hr 1 3 00:00:44 2 7 00:21:51 7:03 min/m
3 3 Michael MCKENNA 290 01:13:34 3 51 00:08:24 3 37 00:01:28 2 2 00:38:11 22.0 m/hr 3 46 00:01:25 3 16 00:24:05 7:46 min/m
Under 25
1 6 Cole KIMBLE 146 01:15:02 1 2 00:05:44 2 14 00:01:04 1 14 00:43:36 19.3 m/hr 2 16 00:01:02 3 14 00:23:34 7:36 min/m
2 12 Evan LANDEZ 213 01:18:37 5 28 00:07:52 1 2 00:00:42 2 23 00:46:19 18.1 m/hr 1 5 00:00:48 2 9 00:22:54 7:23 min/m
3 31 Ricardo DE LA PENA 190 01:25:05 7 49 00:08:20 6 96 00:02:37 6 50 00:51:04 16.4 m/hr 5 44 00:01:22 1 5 00:21:40 6:59 min/m
4 43 Rex ASHLEY 188 01:31:43 4 15 00:07:19 3 50 00:01:46 5 49 00:50:47 16.5 m/hr 4 42 00:01:22 6 60 00:30:26 9:49 min/m
5 45 Anand VALAVALKAR 28 01:31:50 2 8 00:06:48 8 105 00:03:00 3 39 00:49:02 17.1 m/hr 9 76 00:02:06 7 64 00:30:52 9:57 min/m
6 89 Jacob SCHMITZ 34 01:45:56 8 59 00:08:38 5 80 00:02:10 11 125 01:07:05 12.5 m/hr 3 40 00:01:21 5 29 00:26:40 8:36 min/m
7 90 Tucker WEST 96 01:46:07 10 61 00:08:42 10 111 00:03:25 10 120 01:05:55 12.7 m/hr 6 45 00:01:23 4 28 00:26:40 8:36 min/m
8 95 Kasey KRAM 276 01:47:44 3 12 00:07:06 9 109 00:03:08 4 43 00:49:52 16.8 m/hr 11 129 00:03:40 11 128 00:43:56 14:10 min/m
9 98 Zachary KINGSAK 138 01:48:33 6 45 00:08:18 4 55 00:01:52 9 111 01:03:02 13.3 m/hr 8 68 00:01:55 8 84 00:33:24 10:46 min/m
10 107 Nataniel JAYARAM 27 01:50:31 11 110 00:09:56 11 114 00:03:27 8 104 01:01:43 13.6 m/hr 7 67 00:01:53 9 86 00:33:30 10:48 min/m
11 119 Charles DAVIS 204 01:53:57 9 60 00:08:41 7 101 00:02:52 7 81 00:56:28 14.9 m/hr 10 81 00:02:10 10 126 00:43:44 14:06 min/m
Ages 25 - 34
1 5 Jonathan HOUSTON 20 01:14:53 3 13 00:07:13 8 22 00:01:14 1 9 00:42:12 19.9 m/hr 15 49 00:01:28 3 8 00:22:44 7:20 min/m
2 8 Cristopher ESCALANTE 68 01:15:57 14 62 00:08:43 31 138 00:05:15 2 15 00:43:43 19.2 m/hr 31 130 00:03:44 1 1 00:14:29 4:40 min/m
3 9 Mark BENNETT 299 01:17:24 2 6 00:06:39 13 46 00:01:41 3 17 00:44:33 18.9 m/hr 11 29 00:01:10 4 12 00:23:20 7:31 min/m
4 20 Geoffrey TWEED 16 01:23:03 4 18 00:07:27 20 69 00:02:05 7 31 00:47:46 17.6 m/hr 25 87 00:02:20 5 13 00:23:23 7:32 min/m
5 23 Joey ROGAN 30 01:23:28 6 20 00:07:33 12 40 00:01:33 11 40 00:49:08 17.1 m/hr 13 38 00:01:20 6 15 00:23:52 7:41 min/m
6 24 Brian KACAL 195 01:23:29 16 66 00:08:49 2 3 00:00:45 4 21 00:46:03 18.2 m/hr 5 11 00:00:56 8 32 00:26:56 8:41 min/m
7 25 David GARCIA 320 01:24:10 1 1 00:05:16 7 20 00:01:14 6 28 00:47:17 17.8 m/hr 12 34 00:01:16 12 47 00:29:05 9:23 min/m
8 27 Donnie HAY 93 01:24:28 10 32 00:08:01 1 1 00:00:30 8 36 00:48:22 17.4 m/hr 8 22 00:01:06 7 24 00:26:27 8:32 min/m
9 28 Robert HERNANDEZ 266 01:24:35 29 133 00:11:21 11 39 00:01:31 13 53 00:51:17 16.4 m/hr 19 75 00:02:05 2 2 00:18:19 5:54 min/m
10 34 Matthew TOLLE 298 01:26:40 8 25 00:07:41 18 59 00:01:57 5 25 00:46:26 18.1 m/hr 20 79 00:02:08 11 42 00:28:25 9:10 min/m
11 37 Trey ELLEY 117 01:27:38 5 19 00:07:31 5 10 00:00:59 10 38 00:48:53 17.2 m/hr 6 12 00:00:57 13 50 00:29:17 9:26 min/m
12 40 Franco SILVA 47 01:29:17 11 33 00:08:02 17 54 00:01:50 12 46 00:50:22 16.7 m/hr 2 2 00:00:41 10 41 00:28:20 9:08 min/m
13 48 Chad OLIVER 116 01:33:38 9 31 00:07:57 25 91 00:02:30 9 37 00:48:40 17.3 m/hr 24 86 00:02:19 18 73 00:32:11 10:23 min/m
14 51 Jp BARTONICO 104 01:34:33 7 21 00:07:34 21 74 00:02:07 14 56 00:51:44 16.2 m/hr 23 83 00:02:18 16 62 00:30:49 9:56 min/m
15 63 Matthew HOLMES 64 01:38:44 19 91 00:09:21 23 82 00:02:13 21 93 00:57:57 14.5 m/hr 14 41 00:01:22 9 39 00:27:49 8:58 min/m
16 78 Erick VASQUEZ 293 01:42:03 17 79 00:09:06 3 5 00:00:50 16 69 00:54:19 15.5 m/hr 4 8 00:00:53 24 106 00:36:54 11:54 min/m
17 79 Jessie DAILY 208 01:42:10 12 34 00:08:06 29 131 00:04:35 18 73 00:54:53 15.3 m/hr 27 104 00:02:40 17 72 00:31:54 10:17 min/m
18 83 Ricardo GOMEZ 175 01:44:24 30 134 00:11:22 24 83 00:02:16 19 77 00:55:49 15.0 m/hr 22 82 00:02:16 20 80 00:32:39 10:32 min/m
19 84 Thad LUSK 212 01:44:51 21 96 00:09:27 30 134 00:04:51 20 88 00:57:24 14.6 m/hr 28 109 00:02:48 14 57 00:30:19 9:46 min/m
20 88 Jason THOMPSON 41 01:45:39 13 53 00:08:26 9 29 00:01:20 22 107 01:02:13 13.5 m/hr 7 14 00:01:01 19 79 00:32:38 10:31 min/m
21 97 Ahui TRINIDA 174 01:48:32 24 119 00:10:14 22 76 00:02:07 15 64 00:53:03 15.8 m/hr 26 88 00:02:20 28 122 00:40:45 13:09 min/m
22 100 Javier REYNOSO 234 01:49:18 23 115 00:10:12 19 62 00:01:58 23 114 01:03:22 13.3 m/hr 1 1 00:00:37 21 81 00:33:07 10:41 min/m
23 112 Jose DE LUNA 184 01:51:13 31 135 00:11:25 6 19 00:01:13 28 124 01:07:03 12.5 m/hr 10 26 00:01:08 15 58 00:30:22 9:47 min/m
24 116 Josh GONZALES 61 01:52:58 20 94 00:09:25 28 126 00:04:14 24 115 01:04:03 13.1 m/hr 17 61 00:01:44 22 85 00:33:30 10:48 min/m
25 120 Bartholomew TAYLOR 86 01:54:13 28 127 00:10:37 14 48 00:01:42 17 71 00:54:27 15.4 m/hr 21 80 00:02:09 29 131 00:45:16 14:36 min/m
26 121 Henry VELASQUEZ 60 01:54:37 25 122 00:10:21 4 8 00:00:55 25 116 01:04:10 13.1 m/hr 3 7 00:00:52 25 113 00:38:17 12:21 min/m
27 124 Ray MARTINEZ JR. 107 01:55:31 15 63 00:08:45 15 51 00:01:46 26 117 01:04:24 13.0 m/hr 18 70 00:01:57 26 114 00:38:37 12:27 min/m
28 133 Isiah SEIN 201 02:01:45 18 88 00:09:14 16 53 00:01:50 30 130 01:13:42 11.4 m/hr 16 57 00:01:41 23 99 00:35:16 11:22 min/m
29 134 John GINDER 265 02:05:36 26 123 00:10:24                            
30 137 Chris WEAVER 160 02:08:06 27 124 00:10:24 27 120 00:03:48 29 129 01:10:30 11.9 m/hr 29 114 00:02:52 27 121 00:40:29 13:03 min/m
31 139 Clint FRY 231 02:12:05 32 141 00:14:00 26 92 00:02:31 27 121 01:06:16 12.7 m/hr 30 128 00:03:34 30 132 00:45:42 14:44 min/m
32 141 Joseph ANDRAUS 206 02:18:26 22 105 00:09:38 10 34 00:01:23 31 132 01:16:26 11.0 m/hr 9 24 00:01:06 31 136 00:49:51 16:04 min/m
Ages 35 - 44
1 4 Drew HARDIN 215 01:14:03 12 36 00:08:08 10 27 00:01:20 1 5 00:40:16 20.9 m/hr 9 28 00:01:09 2 11 00:23:07 7:27 min/m
2 7 Jared LAHTI 19 01:15:32 9 27 00:07:51 15 38 00:01:30 5 13 00:43:30 19.3 m/hr 2 13 00:00:58 1 6 00:21:42 7:00 min/m
3 14 Shad PURCELL 2 01:19:48 19 47 00:08:19 20 58 00:01:55 4 12 00:43:26 19.3 m/hr 7 25 00:01:07 3 17 00:24:59 8:03 min/m
4 16 Steven DRALLE 217 01:21:45 2 7 00:06:42 1 4 00:00:48 3 10 00:42:19 19.8 m/hr 12 32 00:01:15 22 61 00:30:39 9:53 min/m
5 17 Mark OVERLIE 90 01:22:15 6 17 00:07:27 18 44 00:01:39 6 20 00:45:29 18.5 m/hr 5 19 00:01:04 6 27 00:26:33 8:34 min/m
6 18 Mikkel JENSEN 224 01:22:29 7 24 00:07:39 5 16 00:01:06 2 8 00:41:53 20.1 m/hr 28 66 00:01:53 20 53 00:29:57 9:39 min/m
7 22 Ryan YADEN 235 01:23:16 21 55 00:08:32 30 73 00:02:07                      
8 26 Freddy MARTINEZ 46 01:24:20 15 40 00:08:15 11 30 00:01:21 7 24 00:46:20 18.1 m/hr 6 20 00:01:04 9 34 00:27:18 8:48 min/m
9 30 Michael Scott PLATZ 154 01:24:55 14 39 00:08:14 14 36 00:01:24 11 34 00:48:08 17.4 m/hr 17 47 00:01:26 4 19 00:25:41 8:17 min/m
10 35 Brad WARR 288 01:26:42 5 14 00:07:19 36 88 00:02:23 8 27 00:47:15 17.8 m/hr 15 36 00:01:18 13 43 00:28:25 9:10 min/m
11 36 Brian EVANS 72 01:26:49 8 26 00:07:47 3 13 00:01:03 10 33 00:47:58 17.5 m/hr 13 33 00:01:16 16 46 00:28:43 9:15 min/m
12 39 Lino TREVINO 274 01:29:01 36 82 00:09:07 32 81 00:02:12 12 35 00:48:12 17.4 m/hr 30 71 00:01:57 11 36 00:27:31 8:52 min/m
13 41 John DELAWYER 88 01:29:32 50 106 00:09:41 37 89 00:02:23 9 32 00:47:52 17.5 m/hr 45 106 00:02:45 7 31 00:26:49 8:39 min/m
14 42 Scott RHODES 158 01:29:53 3 9 00:06:49 7 21 00:01:14 21 61 00:52:46 15.9 m/hr 26 63 00:01:50 8 33 00:27:13 8:46 min/m
15 46 Bill REMLING 145 01:31:58 23 64 00:08:46 35 87 00:02:22 14 44 00:49:59 16.8 m/hr 23 58 00:01:42 17 48 00:29:08 9:23 min/m
16 49 Brian ABRAMSON 144 01:33:44 16 42 00:08:17 8 25 00:01:18 25 66 00:53:40 15.6 m/hr 8 27 00:01:09 18 51 00:29:18 9:27 min/m
17 50 Russell CLARK 7 01:34:28 1 5 00:06:08 16 41 00:01:33 22 62 00:52:55 15.9 m/hr 22 54 00:01:35 30 74 00:32:14 10:23 min/m
18 52 Shaun CASSELLS 170 01:35:19 4 10 00:06:53 13 35 00:01:24 19 54 00:51:34 16.3 m/hr 10 30 00:01:15 35 91 00:34:12 11:01 min/m
19 54 Carlos CARRANZA 95 01:35:54 41 89 00:09:17 4 15 00:01:05 23 63 00:53:02 15.8 m/hr 16 37 00:01:19 26 67 00:31:09 10:02 min/m
20 55 Juan ORTIZ 156 01:35:57 28 70 00:08:57 39 93 00:02:33 16 48 00:50:37 16.6 m/hr 52 120 00:02:57 23 63 00:30:50 9:56 min/m
21 56 Teddy ORTIZ 292 01:35:58 20 54 00:08:29 22 61 00:01:58 34 87 00:57:20 14.6 m/hr 1 6 00:00:49 10 35 00:27:21 8:49 min/m
22 59 Mark MORAN 81 01:36:35 49 103 00:09:34 25 66 00:02:04 24 65 00:53:11 15.8 m/hr 37 93 00:02:24 19 52 00:29:20 9:27 min/m
23 60 Matt WOOLSEY 149 01:36:41 34 77 00:09:06 52 121 00:03:48                      
24 61 Carlos GARCIA 6 01:37:06 27 69 00:08:54 2 12 00:01:03 17 51 00:51:05 16.4 m/hr 11 31 00:01:15 37 94 00:34:47 11:13 min/m
25 64 Adrian DOMINGUEZ 226 01:39:05 18 46 00:08:19 49 117 00:03:36 13 42 00:49:23 17.0 m/hr 51 119 00:02:57 38 95 00:34:49 11:14 min/m
26 65 George VALDEZ 219 01:39:21 42 92 00:09:22 19 57 00:01:54 30 80 00:56:26 14.9 m/hr 53 124 00:03:02 15 45 00:28:35 9:13 min/m
27 68 Ernesto LOPEZ 70 01:39:54 48 102 00:09:34 40 94 00:02:33 27 74 00:54:54 15.3 m/hr 14 35 00:01:17 29 71 00:31:33 10:10 min/m
28 69 Rusty JONES 54 01:40:10 52 109 00:09:53 45 108 00:03:06 15 45 00:50:10 16.7 m/hr 42 101 00:02:38 36 92 00:34:21 11:05 min/m
29 70 Jeremy LLOYD 79 01:40:17 22 57 00:08:32 26 67 00:02:04 18 52 00:51:17 16.4 m/hr 34 85 00:02:19 42 100 00:36:02 11:37 min/m
30 71 Amos BARTON 315 01:40:34 43 93 00:09:23 12 32 00:01:23 20 57 00:52:02 16.1 m/hr 20 52 00:01:34 43 102 00:36:11 11:40 min/m
31 73 Trey STAFFORD 137 01:40:49 26 68 00:08:51 23 64 00:02:01 33 86 00:57:12 14.7 m/hr 24 60 00:01:43 24 65 00:31:00 10:00 min/m
32 76 Art ORDOQUI 17 01:41:00 37 84 00:09:08 50 118 00:03:41 39 94 00:58:05 14.5 m/hr 32 73 00:02:02 12 40 00:28:03 9:02 min/m
33 77 Rodrigo RESENDIZ 307 01:41:16 54 117 00:10:14 54 123 00:04:02 35 89 00:57:30 14.6 m/hr 3 17 00:01:02 14 44 00:28:26 9:10 min/m
34 81 Andres RIVAS 252 01:42:17 56 126 00:10:32 43 104 00:03:00 26 68 00:54:11 15.5 m/hr 54 126 00:03:09 28 70 00:31:24 10:07 min/m
35 86 James MULLETT 40 01:45:24 53 112 00:10:09 58 132 00:04:35 28 76 00:55:43 15.1 m/hr 21 53 00:01:34 33 83 00:33:21 10:45 min/m
36 91 Kenneth LEONHARDT 129 01:46:28 55 120 00:10:18 59 133 00:04:42 47 109 01:02:27 13.4 m/hr 43 102 00:02:39 5 23 00:26:20 8:29 min/m
37 93 Jason PENA 115 01:46:54 30 72 00:08:59 17 42 00:01:36 36 90 00:57:35 14.6 m/hr 19 51 00:01:32 46 108 00:37:10 11:59 min/m
38 94 Julian ALVAREZ 306 01:47:40 57 128 00:10:41 55 127 00:04:20 40 95 00:58:35 14.3 m/hr 25 62 00:01:47 31 75 00:32:15 10:24 min/m
39 96 Mark SALAMON 62 01:47:55 25 67 00:08:50 53 122 00:03:50 43 99 00:59:55 14.0 m/hr 47 110 00:02:49 32 77 00:32:28 10:28 min/m
40 99 Eddie BELTRAN 282 01:48:44 10 29 00:07:55 57 129 00:04:33 31 84 00:57:01 14.7 m/hr 57 133 00:04:10 41 98 00:35:03 11:18 min/m
41 101 Damon PENA 225 01:49:20 51 107 00:09:48 31 75 00:02:07 37 91 00:57:44 14.5 m/hr 39 96 00:02:30 45 107 00:37:09 11:59 min/m
42 102 Patrick BLISCHE 133 01:49:55 35 80 00:09:07 61 136 00:05:02 48 112 01:03:04 13.3 m/hr 33 84 00:02:18 21 59 00:30:22 9:47 min/m
43 103 Hector BARRERA 80 01:50:10 29 71 00:08:57 47 112 00:03:25 29 78 00:55:51 15.0 m/hr 49 113 00:02:50 51 117 00:39:04 12:36 min/m
44 104 Gp SINGH 210 01:50:12 38 85 00:09:13                            
45 105 Colby TATE 113 01:50:16 13 38 00:08:14 28 70 00:02:06 32 85 00:57:02 14.7 m/hr 55 131 00:04:01 50 116 00:38:52 12:32 min/m
46 106 Joe FAZ 166 01:50:29 59 137 00:11:53 9 26 00:01:19 51 119 01:05:09 12.9 m/hr 4 18 00:01:03 25 66 00:31:02 10:00 min/m
47 110 Brandon BADILLO 191 01:50:51 33 76 00:09:02 21 60 00:01:57 42 98 00:59:10 14.2 m/hr 27 64 00:01:51 49 115 00:38:48 12:31 min/m
48 111 Reed CLARK 139 01:51:04 40 87 00:09:14 60 135 00:04:59 49 113 01:03:05 13.3 m/hr 36 91 00:02:23 27 69 00:31:20 10:06 min/m
49 114 Kevin WALLIS 211 01:52:08 24 65 00:08:47 34 86 00:02:21 44 102 01:01:04 13.8 m/hr 44 103 00:02:40 47 109 00:37:15 12:01 min/m
50 117 Robert GARZA 83 01:53:08 39 86 00:09:13 42 100 00:02:45                      
51 122 Kevin GOSSETT 157 01:54:41 58 129 00:10:44 29 72 00:02:06 45 103 01:01:39 13.6 m/hr 31 72 00:02:00 48 112 00:38:09 12:18 min/m
52 125 John REGINO 318 01:56:35 17 43 00:08:18 56 128 00:04:29 53 126 01:08:09 12.3 m/hr 18 50 00:01:29 34 90 00:34:08 11:00 min/m
53 126 Matt WIER 280 01:57:24 47 101 00:09:32 6 17 00:01:11 38 92 00:57:55 14.5 m/hr 38 95 00:02:26 55 133 00:46:17 14:55 min/m
54 127 Adrian OLIVAREZ 84 01:57:31 44 95 00:09:26 41 97 00:02:37 52 123 01:06:42 12.6 m/hr 29 69 00:01:55 44 104 00:36:49 11:52 min/m
55 129 Rick BARRERA 39 01:57:52 46 99 00:09:31 48 116 00:03:31 46 108 01:02:19 13.5 m/hr 35 90 00:02:23 52 119 00:40:06 12:56 min/m
56 130 Nathanael DILLARD 102 01:59:31 62 142 00:14:12 33 84 00:02:16 50 118 01:05:09 12.9 m/hr 48 111 00:02:50 40 97 00:35:01 11:17 min/m
57 131 Harold RAINEY 105 01:59:34 60 138 00:12:00 24 65 00:02:01 41 97 00:59:03 14.2 m/hr 40 97 00:02:30 54 129 00:43:58 14:11 min/m
58 132 Mattt VERME 3 02:00:13 31 73 00:08:59 46 110 00:03:12 54 127 01:09:03 12.2 m/hr 56 132 00:04:08 39 96 00:34:50 11:14 min/m
59 135 Bill PAYNE 255 02:07:03 32 75 00:09:01 38 90 00:02:23 55 128 01:09:55 12.0 m/hr 41 99 00:02:34 53 125 00:43:09 13:55 min/m
60 136 Matthew FREDERICKSON 87 02:07:42 45 97 00:09:28 44 107 00:03:06                      
61 142 Rick VENECIA 162 02:22:38 11 35 00:08:07 27 68 00:02:05 57 134 01:21:18 10.3 m/hr 46 107 00:02:45 56 134 00:48:21 15:35 min/m
62 144 Edgar JUAREZ 52 02:28:37 61 140 00:13:18 51 119 00:03:45 56 133 01:19:57 10.5 m/hr 50 116 00:02:55 57 135 00:48:40 15:42 min/m
Ages 45 - 54
1 11 Chuck STEWART 196 01:18:00 2 16 00:07:23 15 79 00:02:09 1 4 00:40:06 20.9 m/hr 13 78 00:02:07 3 20 00:26:12 8:27 min/m
2 13 Victor MATA 22 01:19:41 4 30 00:07:56 14 78 00:02:09 5 19 00:45:29 18.5 m/hr 3 15 00:01:02 2 10 00:23:03 7:26 min/m
3 15 Jose R. FLORES 289 01:20:33 5 37 00:08:14 1 7 00:00:51 2 7 00:41:15 20.4 m/hr 2 10 00:00:55 8 49 00:29:17 9:26 min/m
4 19 Charles BOCOCK 103 01:22:42 14 100 00:09:32 4 24 00:01:16 3 11 00:42:19 19.8 m/hr 12 77 00:02:06 1 3 00:19:27 6:16 min/m
5 21 Rob SCOTT 316 01:23:12 13 98 00:09:30 6 31 00:01:21 4 18 00:44:35 18.8 m/hr 1 9 00:00:54 6 30 00:26:49 8:39 min/m
6 29 James JENNINGS 147 01:24:47                           12 68 00:31:12 10:04 min/m
7 38 Matthew BELL 317 01:27:41 12 90 00:09:19 16 85 00:02:20 6 26 00:46:51 17.9 m/hr 6 43 00:01:22 7 37 00:27:47 8:57 min/m
8 44 Tracey WEST 45 01:31:45 7 44 00:08:18 2 18 00:01:12 13 70 00:54:20 15.5 m/hr 8 55 00:01:38 5 22 00:26:17 8:28 min/m
9 47 Ross WILLIS 227 01:32:11 6 41 00:08:16 3 23 00:01:15 7 29 00:47:25 17.7 m/hr 5 39 00:01:20 18 89 00:33:53 10:56 min/m
10 53 Jim LORNKLANG 75 01:35:26 22 136 00:11:41 18 106 00:03:01 10 58 00:52:08 16.1 m/hr 14 89 00:02:22 4 21 00:26:14 8:27 min/m
11 57 Rene MEDINA 302 01:36:10 19 125 00:10:28 11 56 00:01:54                      
12 58 Eric AGUIRRE 150 01:36:10 21 132 00:11:08 5 28 00:01:20 11 59 00:52:17 16.1 m/hr 7 48 00:01:26 9 54 00:29:58 9:40 min/m
13 62 Karl KLOSE 151 01:37:54 1 11 00:06:54 17 95 00:02:34 9 55 00:51:37 16.3 m/hr 20 123 00:03:01 17 88 00:33:45 10:53 min/m
14 66 Kyle ASHLEY 187 01:39:45 11 81 00:09:07 8 43 00:01:39 8 47 00:50:33 16.6 m/hr 11 74 00:02:05 20 103 00:36:19 11:43 min/m
15 72 James BAUMANN 194 01:40:45 20 130 00:10:49 9 49 00:01:43 14 72 00:54:28 15.4 m/hr 4 23 00:01:06 14 78 00:32:36 10:31 min/m
16 74 Mike COOK 23 01:40:50 3 23 00:07:36 7 33 00:01:23 18 83 00:56:49 14.8 m/hr 9 59 00:01:43 15 82 00:33:17 10:44 min/m
17 75 Jorge BONILLA 296 01:40:59 8 48 00:08:20 19 113 00:03:26 12 67 00:53:46 15.6 m/hr 21 125 00:03:04 13 76 00:32:21 10:26 min/m
18 82 Ted VENECIA 82 01:43:00 9 56 00:08:32 12 63 00:01:58 16 79 00:55:53 15.0 m/hr 10 65 00:01:52 19 93 00:34:43 11:12 min/m
19 92 Troy BEEHLER 269 01:46:29 23 139 00:12:47 23 140 00:05:32 15 75 00:55:05 15.2 m/hr 17 112 00:02:50 10 55 00:30:14 9:45 min/m
20 108 Gary GATLIN 259 01:50:33 18 121 00:10:19 22 125 00:04:13 20 110 01:02:59 13.3 m/hr 16 105 00:02:44 11 56 00:30:15 9:45 min/m
21 109 Kiran JAYARAM 26 01:50:42 17 114 00:10:10 20 115 00:03:28 19 101 01:00:32 13.9 m/hr 18 121 00:02:58 16 87 00:33:33 10:49 min/m
22 113 Clayyton SMITH 199 01:51:44 16 111 00:09:57 13 77 00:02:09 17 82 00:56:42 14.8 m/hr 15 94 00:02:26 21 120 00:40:28 13:03 min/m
23 118 Victor COLON 59 01:53:35                                  
24 138 Bernard MENDOZA 124 02:10:42 15 104 00:09:36 21 124 00:04:11 21 122 01:06:39 12.6 m/hr 22 134 00:05:07 23 130 00:45:07 14:33 min/m
25 143 David CAMACHO 200 02:23:09 10 78 00:09:06 10 52 00:01:49 22 135 01:27:00 9.7 m/hr 19 122 00:02:59 22 124 00:42:14 13:37 min/m
Ages 55+
1 10 Paul PATTERSON 262 01:17:31 3 52 00:08:25 1 11 00:01:01 1 6 00:40:31 20.7 m/hr 1 21 00:01:05 2 25 00:26:28 8:32 min/m
2 32 John BAKER 305 01:26:27 5 74 00:09:00 2 45 00:01:40 3 22 00:46:15 18.2 m/hr 2 56 00:01:40 4 38 00:27:49 8:58 min/m
3 33 Tim LANKES 57 01:26:37 2 50 00:08:22 3 47 00:01:42 4 30 00:47:37 17.6 m/hr 3 92 00:02:24 3 26 00:26:32 8:33 min/m
4 67 David JENKINS 110 01:39:48 1 22 00:07:36 5 98 00:02:38 5 41 00:49:17 17.0 m/hr 4 98 00:02:33 7 110 00:37:43 12:10 min/m
5 80 Rex BOYLAND 275 01:42:17 6 83 00:09:08 6 99 00:02:44 2 16 00:43:50 19.2 m/hr 6 108 00:02:46 11 127 00:43:48 14:07 min/m
6 85 Bernhard ZOELLICH 65 01:44:59 7 108 00:09:48 10 137 00:05:04 9 105 01:01:54 13.6 m/hr 8 117 00:02:55 1 18 00:25:15 8:08 min/m
7 87 Robert W SIMS 273 01:45:37 4 58 00:08:35 4 71 00:02:06 6 60 00:52:23 16.0 m/hr 7 115 00:02:53 9 118 00:39:37 12:47 min/m
8 115 Charles MILD 122 01:52:31 10 118 00:10:14 8 103 00:02:56 8 100 01:00:20 13.9 m/hr 9 118 00:02:56 5 101 00:36:03 11:37 min/m
9 123 Alberto ALVAREZ 277 01:55:28 9 116 00:10:14 7 102 00:02:53 7 96 00:58:46 14.3 m/hr 11 135 00:06:40 6 105 00:36:53 11:53 min/m
10 128 Javier REYES 101 01:57:50 8 113 00:10:09 9 130 00:04:34 10 106 01:02:04 13.5 m/hr 10 127 00:03:11 8 111 00:37:50 12:12 min/m
11 140 Jim FAULK 10 02:16:31 11 131 00:10:51 11 139 00:05:25 11 131 01:16:16 11.0 m/hr 5 100 00:02:35 10 123 00:41:22 13:20 min/m
Chip Timing by RRPTiming.com!

 

[ Manly Man Tri ] [ Man Up Tri] [ Strong Woman Tri]

2016 Inaugural Manly Man Tri Results
Strong Woman Tri
Overall Swim
(300M)
T1 Bike
(10m)
T1 Run
(2m)
AG
Pos
Overall
Pos
Name Race No Finish
Time
AG
Pos
Overall
Pos
Time AG
Pos
Overall
Pos
Time AG
Pos
Overall
Pos
Time Pace AG
Pos
Overall
Pos
Time AG
Pos
Overall
Pos
Time Pace
Overall
1 1 Sharon SANDER 132 00:55:26 1 1 00:05:58 3 5 00:00:56 1 1 00:32:08 18.7 m/hr 2 6 00:00:54 1 1 00:15:28 7:44 min/m
2 2 Veronica THAXTON 91 00:57:18 2 5 00:07:49 1 2 00:00:48 2 2 00:32:08 18.7 m/hr 3 8 00:00:58 2 2 00:15:32 7:46 min/m
3 3 Tiffany BRIGGS 189 01:03:56 3 15 00:08:12 2 4 00:00:54 3 4 00:35:46 16.8 m/hr 1 5 00:00:51 3 7 00:18:12 9:06 min/m
Under 25
1 6 Sara HOFFMAN 167 01:05:23 1 4 00:07:40 1 7 00:01:08 1 13 00:39:29 15.2 m/hr 1 2 00:00:44 1 3 00:16:20 8:10 min/m
2 30 Daniella SANTANGELO 241 01:24:03 3 14 00:08:11 2 22 00:01:43 2 20 00:42:45 14.0 m/hr 4 29 00:01:57 6 48 00:29:25 14:42 min/m
3 31 Andrea SANTANGELO 247 01:24:08 4 17 00:08:15 3 28 00:01:54 3 25 00:45:22 13.2 m/hr 2 14 00:01:09 4 42 00:27:26 13:43 min/m
4 45 Ashley SWENDIG 291 01:36:30 2 10 00:07:58 5 44 00:02:46 6 49 00:58:56 10.2 m/hr 3 27 00:01:49 2 33 00:24:59 12:29 min/m
5 49 Stephanie BOEHM 233 01:40:14 5 36 00:09:32 4 40 00:02:18 4 43 00:53:48 11.2 m/hr 6 53 00:05:27 5 47 00:29:08 14:34 min/m
6 51 Naya JAYARAM 249 01:41:09 6 47 00:10:22 6 54 00:05:02 5 46 00:55:52 10.7 m/hr 5 49 00:02:56 3 39 00:26:54 13:27 min/m
Ages 25 - 34
1 5 Melody LUSK 246 01:04:39 1 16 00:08:13 1 11 00:01:21 1 7 00:37:02 16.2 m/hr 2 15 00:01:10 1 4 00:16:51 8:25 min/m
2 24 Susan LOSBY 163 01:22:42 7 32 00:09:19 13 52 00:04:43 2 26 00:46:04 13.0 m/hr 13 52 00:03:55 2 10 00:18:39 9:19 min/m
3 25 Meghan DICKERSON 237 01:22:45 6 27 00:09:04 2 16 00:01:30 7 39 00:51:59 11.5 m/hr 1 9 00:01:00 3 12 00:19:10 9:35 min/m
4 28 Emily FRITZ 272 01:22:55 3 21 00:08:35 11 46 00:03:10 3 29 00:46:34 12.9 m/hr 6 30 00:02:00 6 25 00:22:33 11:16 min/m
5 33 Daniela HINOJOSA 198 01:25:20 12 50 00:10:49 9 36 00:02:13 5 36 00:49:12 12.2 m/hr 12 47 00:02:48 4 14 00:20:17 10:08 min/m
6 35 Courtney HENRY 295 01:25:42 2 20 00:08:35 10 45 00:02:56 4 33 00:47:07 12.7 m/hr 7 35 00:02:05 8 32 00:24:56 12:28 min/m
7 37 Mollie MCCULLOUGH 232 01:26:02 11 49 00:10:27 5 27 00:01:53 6 37 00:49:31 12.1 m/hr 3 20 00:01:33 7 26 00:22:36 11:18 min/m
8 44 Chloe SIMONEAUX 161 01:34:24 5 25 00:08:56 6 32 00:02:08 9 44 00:54:54 10.9 m/hr 11 43 00:02:24 9 37 00:26:00 13:00 min/m
9 46 Elizabeth NEZDA 119 01:37:14 4 24 00:08:47 7 33 00:02:10 11 48 00:56:15 10.7 m/hr 10 42 00:02:24 10 43 00:27:37 13:48 min/m
10 47 Nicole GIANNELLI 242 01:37:20 8 39 00:09:35 4 23 00:01:45 12 51 01:01:54 9.7 m/hr 4 22 00:01:39 5 23 00:22:24 11:12 min/m
11 48 Ruth JOHNSON 260 01:39:26 10 48 00:10:26 12 48 00:03:12 8 41 00:52:05 11.5 m/hr 9 39 00:02:12 11 50 00:31:28 15:44 min/m
12 52 Corinne PRICE 118 01:41:42 13 51 00:11:03 3 18 00:01:32 10 45 00:55:25 10.8 m/hr 5 24 00:01:43 12 51 00:31:57 15:58 min/m
13 55 Stacy RUTLEDGE 185 01:59:31 9 41 00:09:53                     14 54 00:34:15 17:07 min/m
14 56 Michaella DIETRICH 123 02:07:06 14 54 00:11:40 8 34 00:02:10 13 53 01:17:03 7.8 m/hr 8 37 00:02:10 13 53 00:34:01 17:00 min/m
Ages 35 - 44
1 4 Kari KUBISTA 297 01:04:25 9 18 00:08:17 8 24 00:01:47 1 3 00:34:48 17.2 m/hr 15 41 00:02:17 1 5 00:17:15 8:37 min/m
2 8 April SHADDEN 131 01:06:31 12 26 00:08:56 6 19 00:01:38 2 6 00:36:32 16.4 m/hr 2 10 00:01:01 3 9 00:18:22 9:11 min/m
3 9 Kim DELAWYER 120 01:08:26 16 38 00:09:34 7 20 00:01:42 3 9 00:37:21 16.1 m/hr 5 19 00:01:30 2 8 00:18:17 9:08 min/m
4 13 Shannan SCHNITTGER 141 01:12:26 7 12 00:08:03 5 15 00:01:28 5 17 00:40:48 14.7 m/hr 6 21 00:01:34 4 15 00:20:31 10:15 min/m
5 14 Megan HARDIN 257 01:12:52 4 8 00:07:55 2 10 00:01:15 4 15 00:40:37 14.8 m/hr 1 7 00:00:56 7 22 00:22:07 11:03 min/m
6 17 Jennifer BENNETT 300 01:14:08 6 11 00:07:59 1 9 00:01:14 6 18 00:40:51 14.7 m/hr 3 13 00:01:06 9 27 00:22:56 11:28 min/m
7 20 Michelle JONES 155 01:20:46 2 3 00:07:29 17 51 00:04:07 7 19 00:41:28 14.5 m/hr 11 33 00:02:04 11 34 00:25:36 12:48 min/m
8 22 Eileen VOGT 172 01:22:22 18 44 00:10:01 13 31 00:02:07 13 31 00:46:57 12.8 m/hr 7 25 00:01:43 6 21 00:21:33 10:46 min/m
9 26 Kelly HUBER 402 01:22:48 5 9 00:07:56 9 25 00:01:51 8 21 00:43:00 14.0 m/hr 4 18 00:01:15 16 46 00:28:44 14:22 min/m
10 27 Kellye KIRKPATRICK 186 01:22:51 1 2 00:07:19 4 14 00:01:27 11 24 00:45:02 13.3 m/hr 10 32 00:02:03 13 41 00:26:58 13:29 min/m
11 29 Jennifer SALAMON 140 01:23:59 14 30 00:09:18 15 43 00:02:46 14 34 00:48:04 12.5 m/hr 16 46 00:02:44 5 19 00:21:05 10:32 min/m
12 34 Christa CARLTON 125 01:25:28 10 19 00:08:22 11 29 00:02:00 10 23 00:44:43 13.4 m/hr 13 36 00:02:06 14 44 00:28:15 14:07 min/m
13 36 Karen LANASA 229 01:26:01 17 40 00:09:51 10 26 00:01:52                      
14 38 Kimberly DEA 205 01:26:03 8 13 00:08:04 3 13 00:01:24 9 22 00:44:06 13.6 m/hr 12 34 00:02:05 17 49 00:30:23 15:11 min/m
15 39 Kimberly YOUNG 130 01:27:55 15 37 00:09:32 12 30 00:02:06 16 40 00:52:00 11.5 m/hr 8 26 00:01:46 8 24 00:22:28 11:14 min/m
16 40 Marisa BARBER 261 01:28:49 11 22 00:08:41 16 47 00:03:11 12 30 00:46:46 12.8 m/hr 9 28 00:01:54 15 45 00:28:16 14:08 min/m
17 41 Marlo WALLENDORF 222 01:29:37 3 7 00:07:55 14 41 00:02:22 17 42 00:52:38 11.4 m/hr 14 38 00:02:11 10 30 00:24:28 12:14 min/m
18 42 Cameron ARMSTRONG 164 01:32:36 13 29 00:09:12 18 55 00:05:25 15 35 00:48:13 12.4 m/hr 17 51 00:03:43 12 38 00:26:01 13:00 min/m
Ages 45 - 54
1 7 Christy MARTINEZ 143 01:06:02 4 33 00:09:19 1 1 00:00:47 2 8 00:37:13 16.1 m/hr 1 1 00:00:39 1 6 00:18:02 9:01 min/m
2 10 Victoria RODRIGUEZ 250 01:09:54 9 45 00:10:07 3 12 00:01:24 4 11 00:38:31 15.6 m/hr 2 3 00:00:47 2 11 00:19:04 9:32 min/m
3 11 Anne MOSQUEDA 135 01:10:07 1 23 00:08:46 2 8 00:01:11 3 10 00:38:24 15.6 m/hr 3 12 00:01:03 4 17 00:20:41 10:20 min/m
4 12 Amy WAGES 128 01:10:55 3 31 00:09:18 9 49 00:03:24 1 5 00:36:29 16.4 m/hr 6 40 00:02:14 3 13 00:19:28 9:44 min/m
5 15 Betzi KELTON 243 01:13:37 2 28 00:09:10 5 37 00:02:13 6 14 00:40:16 14.9 m/hr 4 16 00:01:11 5 18 00:20:44 10:22 min/m
6 18 Darlene WILLIS 228 01:17:11 8 43 00:10:00 4 17 00:01:30                      
7 19 Renee SOTO 221 01:18:57 5 34 00:09:25 10 50 00:03:48 5 12 00:39:15 15.3 m/hr 10 50 00:03:02 7 29 00:23:25 11:42 min/m
8 21 Gina GALLEGOS 303 01:22:11 7 42 00:09:53 7 39 00:02:16 7 32 00:47:02 12.8 m/hr 5 23 00:01:40 6 20 00:21:19 10:39 min/m
9 43 Debbie ROSENBAUM 283 01:33:33 11 55 00:11:55 6 38 00:02:15 8 38 00:50:39 11.8 m/hr 8 45 00:02:44 9 36 00:25:59 12:59 min/m
10 50 Elzbieta MCMURTRIE-JAYARAM 248 01:41:01 10 46 00:10:15 11 53 00:04:58 9 47 00:55:56 10.7 m/hr 9 48 00:02:56 10 40 00:26:55 13:27 min/m
11 54 Judy PEAKE 240 01:50:18 6 35 00:09:28 8 42 00:02:32 10 52 01:09:50 8.6 m/hr 7 44 00:02:42 8 35 00:25:44 12:52 min/m
Ages 55+
1 16 Annabel SPARKMAN 244 01:13:43 1 6 00:07:51 2 6 00:01:01 1 16 00:40:40 14.8 m/hr 3 17 00:01:13 2 28 00:22:56 11:28 min/m
2 23 Glennis BRYCE 214 01:22:25 3 53 00:11:16 4 35 00:02:11 2 27 00:46:14 13.0 m/hr 4 31 00:02:03 1 16 00:20:39 10:19 min/m
3 32 Vicky GEISLER 287 01:24:50 2 52 00:11:07 3 21 00:01:42 3 28 00:46:19 13.0 m/hr 2 11 00:01:02 3 31 00:24:38 12:19 min/m
4 53 Roxanne ARNDT 400 01:47:25 4 56 00:12:24 1 3 00:00:51 4 50 00:59:22 10.1 m/hr 1 4 00:00:49 4 52 00:33:57 16:58 min/m
Chip Timing by RRPTiming.com!

© copyright 2013, RRPTiming.com. RRPTiming is a Redemption Race Productions site. Website by Rich.